createdAt,value
2019-03-10T00:02:04.686Z,99.90
2019-03-10T00:04:33.574Z,99.90
2019-03-10T00:07:02.437Z,99.90
2019-03-10T00:09:31.309Z,99.90
2019-03-10T00:12:00.180Z,99.90
2019-03-10T00:14:29.225Z,99.90
2019-03-10T00:16:58.063Z,99.90
2019-03-10T00:19:26.988Z,99.90
2019-03-10T00:21:55.811Z,99.90
2019-03-10T00:24:24.687Z,99.90
2019-03-10T00:26:53.550Z,99.90
2019-03-10T00:29:22.430Z,99.90
2019-03-10T00:31:51.308Z,99.90
2019-03-10T00:34:20.182Z,99.90
2019-03-10T00:36:49.072Z,99.90
2019-03-10T00:39:27.443Z,99.90
2019-03-10T00:42:08.657Z,99.90
2019-03-10T00:44:55.096Z,99.90
2019-03-10T00:47:35.615Z,99.90
2019-03-10T00:50:12.986Z,99.90
2019-03-10T00:52:42.624Z,99.90
2019-03-10T00:55:11.520Z,99.90
2019-03-10T00:57:40.360Z,99.90
2019-03-10T01:00:12.801Z,99.90
2019-03-10T01:02:41.673Z,99.90
2019-03-10T01:05:10.544Z,99.90
2019-03-10T01:07:39.407Z,99.90
2019-03-10T01:10:08.322Z,99.90
2019-03-10T01:12:37.189Z,99.90
2019-03-10T01:15:06.069Z,99.90
2019-03-10T01:17:34.967Z,99.90
2019-03-10T01:20:04.584Z,99.90
2019-03-10T01:22:33.440Z,99.90
2019-03-10T01:25:02.308Z,99.90
2019-03-10T01:27:31.178Z,99.90
2019-03-10T01:30:00.034Z,99.90
2019-03-10T01:32:29.720Z,99.90
2019-03-10T01:35:01.257Z,99.90
2019-03-10T01:37:30.125Z,99.90
2019-03-10T01:39:59.041Z,99.90
2019-03-10T01:44:57.360Z,99.90
2019-03-10T01:47:26.212Z,99.90
2019-03-10T01:49:55.084Z,99.90
2019-03-10T01:52:23.966Z,99.90
2019-03-10T01:54:53.465Z,99.90
2019-03-10T01:57:23.066Z,99.90
2019-03-10T01:59:52.073Z,99.90
2019-03-10T02:02:25.741Z,99.90
2019-03-10T02:04:49.826Z,99.90
2019-03-10T02:07:18.673Z,99.90
2019-03-10T02:09:47.550Z,99.90
2019-03-10T02:12:16.409Z,99.90
2019-03-10T02:14:45.275Z,99.90
2019-03-10T02:17:14.142Z,99.90
2019-03-10T02:19:43.022Z,99.90
2019-03-10T02:22:11.894Z,99.90
2019-03-10T02:24:40.762Z,99.90
2019-03-10T02:27:09.633Z,99.90
2019-03-10T02:29:38.502Z,99.90
2019-03-10T02:32:08.126Z,99.90
2019-03-10T02:34:36.989Z,99.90
2019-03-10T02:37:05.867Z,99.90
2019-03-10T02:39:34.717Z,99.90
2019-03-10T02:42:03.611Z,99.90
2019-03-10T02:44:32.479Z,99.90
2019-03-10T02:47:01.377Z,99.90
2019-03-10T02:49:30.349Z,99.90
2019-03-10T02:51:59.188Z,99.90
2019-03-10T02:54:28.056Z,99.90
2019-03-10T02:56:56.927Z,99.90
2019-03-10T02:59:25.794Z,99.90
2019-03-10T03:01:54.647Z,99.90
2019-03-10T03:04:23.501Z,99.90
2019-03-10T03:06:52.390Z,99.90
2019-03-10T03:09:21.259Z,99.90
2019-03-10T03:11:50.137Z,99.90
2019-03-10T03:14:19.008Z,99.90
2019-03-10T03:16:47.889Z,99.90
2019-03-10T03:19:16.739Z,99.90
2019-03-10T03:21:45.619Z,99.90
2019-03-10T03:24:14.503Z,99.90
2019-03-10T03:26:43.379Z,99.90
2019-03-10T03:29:12.217Z,99.90
2019-03-10T03:31:41.063Z,99.90
2019-03-10T03:34:10.683Z,99.90
2019-03-10T03:36:39.561Z,99.90
2019-03-10T03:39:15.963Z,99.90
2019-03-10T03:41:44.802Z,99.90
2019-03-10T03:44:13.712Z,99.90
2019-03-10T03:46:42.544Z,99.90
2019-03-10T03:49:11.405Z,99.90
2019-03-10T03:51:40.295Z,99.90
2019-03-10T03:54:09.214Z,99.90
2019-03-10T03:56:38.096Z,99.90
2019-03-10T03:59:06.991Z,99.90
2019-03-10T04:01:35.856Z,99.90
2019-03-10T04:04:05.487Z,99.90
2019-03-10T04:06:35.096Z,99.90
2019-03-10T04:09:04.014Z,99.90
2019-03-10T04:11:33.576Z,99.90
2019-03-10T04:14:03.194Z,99.90
2019-03-10T04:16:32.057Z,99.90
2019-03-10T04:19:01.703Z,99.90
2019-03-10T04:21:30.553Z,99.90
2019-03-10T04:23:59.443Z,99.90
2019-03-10T04:26:28.366Z,99.90
2019-03-10T04:28:57.224Z,99.90
2019-03-10T04:31:26.115Z,99.90
2019-03-10T04:33:54.994Z,99.90
2019-03-10T04:36:23.869Z,99.90
2019-03-10T04:38:52.768Z,99.90
2019-03-10T04:41:21.594Z,99.90
2019-03-10T04:43:50.460Z,99.90
2019-03-10T04:46:19.330Z,99.90
2019-03-10T04:48:48.293Z,99.90
2019-03-10T04:51:17.144Z,99.90
2019-03-10T04:53:46.736Z,99.90
2019-03-10T04:56:15.652Z,99.90
2019-03-10T04:58:44.498Z,99.90
2019-03-10T05:01:13.374Z,99.90
2019-03-10T05:03:42.252Z,99.90
2019-03-10T05:06:11.164Z,99.90
2019-03-10T05:08:40.020Z,99.90
2019-03-10T05:11:08.956Z,99.90
2019-03-10T05:13:37.819Z,99.90
2019-03-10T05:16:06.728Z,99.90
2019-03-10T05:18:35.544Z,99.90
2019-03-10T05:21:05.138Z,99.90
2019-03-10T05:23:35.750Z,99.90
2019-03-10T05:26:04.579Z,99.90
2019-03-10T05:28:33.450Z,99.90
2019-03-10T05:33:31.802Z,99.90
2019-03-10T05:36:00.652Z,99.90
2019-03-10T05:38:29.524Z,99.90
2019-03-10T05:40:58.438Z,99.90
2019-03-10T05:43:27.255Z,99.90
2019-03-10T05:45:56.134Z,99.90
2019-03-10T05:48:25.059Z,99.90
2019-03-10T05:50:53.883Z,99.90
2019-03-10T05:53:22.822Z,99.90
2019-03-10T05:55:51.730Z,99.90
2019-03-10T05:58:20.607Z,99.90
2019-03-10T06:00:49.472Z,99.90
2019-03-10T06:03:18.344Z,99.90
2019-03-10T06:05:47.220Z,99.90
2019-03-10T06:08:16.923Z,99.90
2019-03-10T06:10:45.773Z,99.90
2019-03-10T06:13:14.634Z,99.90
2019-03-10T06:15:43.518Z,99.90
2019-03-10T06:18:14.177Z,99.90
2019-03-10T06:20:42.747Z,99.90
2019-03-10T06:23:11.618Z,99.90
2019-03-10T06:25:41.241Z,99.90
2019-03-10T06:28:10.119Z,99.90
2019-03-10T06:30:39.002Z,99.90
2019-03-10T06:33:07.881Z,99.90
2019-03-10T06:35:37.530Z,99.90
2019-03-10T06:38:06.612Z,99.90
2019-03-10T06:40:35.470Z,99.90
2019-03-10T06:43:04.362Z,99.90
2019-03-10T06:45:34.048Z,99.90
2019-03-10T06:48:02.908Z,99.90
2019-03-10T06:50:31.783Z,99.90
2019-03-10T06:53:00.688Z,99.90
2019-03-10T06:55:29.546Z,99.90
2019-03-10T06:57:58.441Z,99.90
2019-03-10T07:00:27.311Z,99.90
2019-03-10T07:02:56.202Z,99.90
2019-03-10T07:05:25.290Z,99.90
2019-03-10T07:07:54.148Z,99.90
2019-03-10T07:10:23.110Z,99.90
2019-03-10T07:12:51.991Z,99.90
2019-03-10T07:15:20.858Z,99.90
2019-03-10T07:17:50.457Z,99.90
2019-03-10T07:20:20.181Z,99.90
2019-03-10T07:22:49.833Z,99.90
2019-03-10T07:25:18.716Z,99.90
2019-03-10T07:27:47.598Z,99.90
2019-03-10T07:30:22.085Z,99.90
2019-03-10T07:32:51.062Z,99.90
2019-03-10T07:35:19.971Z,99.90
2019-03-10T07:37:49.598Z,99.90
2019-03-10T07:40:22.328Z,99.90
2019-03-10T07:42:51.223Z,99.90
2019-03-10T07:45:20.131Z,99.90
2019-03-10T07:47:53.518Z,99.90
2019-03-10T07:50:25.261Z,99.90
2019-03-10T07:52:54.161Z,99.90
2019-03-10T07:55:23.094Z,99.90
2019-03-10T07:57:53.584Z,99.90
2019-03-10T08:00:27.852Z,99.90
2019-03-10T08:02:56.838Z,99.90
2019-03-10T08:05:27.603Z,99.90
2019-03-10T08:07:56.478Z,99.90
2019-03-10T08:10:25.436Z,99.90
2019-03-10T08:12:55.242Z,99.90
2019-03-10T08:15:28.657Z,99.90
2019-03-10T08:17:58.444Z,99.90
2019-03-10T08:20:32.911Z,99.90
2019-03-10T08:23:01.935Z,99.90
2019-03-10T08:25:31.764Z,99.90
2019-03-10T08:28:02.385Z,99.90
2019-03-10T08:30:32.059Z,99.90
2019-03-10T08:33:06.407Z,99.90
2019-03-10T08:35:38.053Z,99.90
2019-03-10T08:38:07.052Z,99.90
2019-03-10T08:40:35.943Z,99.90
2019-03-10T08:43:04.826Z,99.90
2019-03-10T08:45:33.705Z,99.90
2019-03-10T08:48:05.336Z,99.90
2019-03-10T08:50:36.197Z,99.90
2019-03-10T08:53:05.083Z,99.90
2019-03-10T08:55:39.541Z,99.90
2019-03-10T08:58:08.428Z,99.90
2019-03-10T09:00:37.282Z,99.90
2019-03-10T09:03:08.925Z,99.90
2019-03-10T09:05:40.551Z,99.90
2019-03-10T09:08:09.418Z,99.90
2019-03-10T09:10:41.839Z,99.90
2019-03-10T09:13:11.444Z,99.90
2019-03-10T09:15:43.135Z,99.90
2019-03-10T09:18:14.708Z,99.90
2019-03-10T09:20:45.071Z,99.90
2019-03-10T09:23:15.833Z,99.90
2019-03-10T09:25:48.475Z,99.90
2019-03-10T09:28:17.394Z,99.90
2019-03-10T09:30:48.153Z,99.90
2019-03-10T09:33:17.023Z,99.90
2019-03-10T09:35:51.440Z,99.90
2019-03-10T09:38:20.331Z,99.90
2019-03-10T09:40:51.954Z,99.90
2019-03-10T09:43:20.810Z,99.90
2019-03-10T09:45:51.468Z,99.90
2019-03-10T09:48:20.335Z,99.90
2019-03-10T09:50:50.059Z,99.90
2019-03-10T09:53:18.990Z,99.90
2019-03-10T09:55:47.885Z,99.90
2019-03-10T09:58:18.529Z,99.90
2019-03-10T10:00:52.241Z,99.90
2019-03-10T10:03:25.576Z,99.90
2019-03-10T10:05:55.521Z,99.90
2019-03-10T10:08:26.157Z,99.90
2019-03-10T10:10:57.821Z,99.90
2019-03-10T10:13:26.716Z,99.90
2019-03-10T10:15:56.450Z,99.90
2019-03-10T10:18:26.165Z,99.90
2019-03-10T10:21:00.733Z,99.90
2019-03-10T10:23:29.672Z,99.90
2019-03-10T10:25:58.533Z,99.90
2019-03-10T10:28:29.291Z,99.90
2019-03-10T10:30:58.903Z,99.90
2019-03-10T10:33:32.537Z,99.90
2019-03-10T10:36:05.235Z,99.90
2019-03-10T10:38:34.125Z,99.90
2019-03-10T10:41:06.759Z,99.90
2019-03-10T10:43:36.408Z,99.90
2019-03-10T10:46:07.190Z,99.90
2019-03-10T10:48:36.893Z,99.90
2019-03-10T10:51:05.766Z,99.90
2019-03-10T10:53:37.539Z,99.90
2019-03-10T10:56:06.459Z,99.90
2019-03-10T10:58:39.215Z,99.90
2019-03-10T11:01:12.569Z,99.90
2019-03-10T11:03:46.249Z,99.90
2019-03-10T11:06:15.122Z,99.90
2019-03-10T11:08:47.684Z,99.90
2019-03-10T11:11:18.374Z,99.90
2019-03-10T11:13:50.174Z,99.90
2019-03-10T11:16:19.093Z,99.90
2019-03-10T11:18:47.911Z,99.90
2019-03-10T11:21:16.785Z,99.90
2019-03-10T11:23:51.253Z,99.90
2019-03-10T11:26:25.682Z,99.90
2019-03-10T11:28:54.567Z,99.90
2019-03-10T11:31:23.477Z,99.90
2019-03-10T11:33:55.040Z,99.90
2019-03-10T11:36:24.089Z,99.90
2019-03-10T11:38:52.976Z,99.90
2019-03-10T11:41:21.843Z,99.90
2019-03-10T11:43:50.697Z,99.90
2019-03-10T11:46:26.187Z,99.90
2019-03-10T11:48:55.892Z,99.90
2019-03-10T11:51:28.289Z,99.90
2019-03-10T11:53:58.904Z,99.90
2019-03-10T11:56:27.805Z,99.90
2019-03-10T11:58:58.438Z,99.90
2019-03-10T12:01:27.297Z,99.90
2019-03-10T12:03:56.258Z,99.90
2019-03-10T12:06:27.854Z,99.90
2019-03-10T12:08:58.590Z,99.90
2019-03-10T12:11:27.467Z,99.90
2019-03-10T12:13:56.334Z,99.90
2019-03-10T12:16:25.239Z,99.90
2019-03-10T12:18:54.113Z,99.90
2019-03-10T12:21:22.966Z,99.90
2019-03-10T12:23:51.819Z,99.90
2019-03-10T12:26:20.682Z,99.90
2019-03-10T12:28:49.532Z,99.90
2019-03-10T12:31:18.406Z,99.90
2019-03-10T12:33:47.278Z,99.90
2019-03-10T12:36:16.123Z,99.90
2019-03-10T12:38:44.992Z,99.90
2019-03-10T12:41:13.849Z,99.90
2019-03-10T12:43:42.765Z,99.90
2019-03-10T12:46:11.605Z,99.90
2019-03-10T12:48:40.460Z,99.90
2019-03-10T12:51:09.300Z,99.90
2019-03-10T12:53:38.146Z,99.90
2019-03-10T12:56:07.737Z,99.90
2019-03-10T12:58:36.593Z,99.90
2019-03-10T13:01:06.742Z,99.90
2019-03-10T13:03:34.389Z,99.90
2019-03-10T13:06:03.919Z,99.90
2019-03-10T13:08:32.772Z,99.90
2019-03-10T13:11:01.629Z,99.90
2019-03-10T13:13:30.503Z,99.90
2019-03-10T13:15:59.318Z,99.90
2019-03-10T13:18:28.175Z,99.90
2019-03-10T13:20:57.023Z,99.90
2019-03-10T13:23:26.629Z,99.90
2019-03-10T13:25:55.473Z,99.90
2019-03-10T13:28:24.319Z,99.90
2019-03-10T13:30:53.167Z,99.90
2019-03-10T13:35:51.466Z,99.90
2019-03-10T13:38:20.311Z,99.90
2019-03-10T13:40:49.159Z,99.90
2019-03-10T13:43:18.025Z,99.90
2019-03-10T13:45:46.861Z,99.90
2019-03-10T13:48:15.752Z,99.90
2019-03-10T13:50:44.567Z,99.90
2019-03-10T13:53:13.421Z,99.90
2019-03-10T13:55:42.256Z,99.90
2019-03-10T13:58:11.115Z,99.90
2019-03-10T14:00:39.970Z,99.90
2019-03-10T14:03:09.569Z,99.90
2019-03-10T14:05:38.455Z,99.90
2019-03-10T14:08:07.263Z,99.90
2019-03-10T14:10:36.851Z,99.90
2019-03-10T14:13:05.675Z,99.90
2019-03-10T14:15:34.529Z,99.90
2019-03-10T14:18:03.388Z,99.90
2019-03-10T14:20:32.226Z,99.90
2019-03-10T14:23:01.075Z,99.90
2019-03-10T14:25:29.918Z,99.90
2019-03-10T14:27:58.803Z,99.90
2019-03-10T14:30:28.397Z,96.70
2019-03-10T14:32:57.281Z,95.70
2019-03-10T14:35:26.103Z,93.40
2019-03-10T14:37:54.967Z,96.90
2019-03-10T14:40:23.777Z,95.70
2019-03-10T14:42:52.604Z,95.00
2019-03-10T14:45:21.442Z,85.50
2019-03-10T14:47:51.024Z,83.80
2019-03-10T14:50:19.862Z,80.50
2019-03-10T14:52:48.703Z,79.50
2019-03-10T14:55:17.550Z,76.40
2019-03-10T14:57:46.385Z,73.30
2019-03-10T15:00:17.055Z,75.50
2019-03-10T15:02:45.886Z,76.40
2019-03-10T15:05:14.728Z,75.30
2019-03-10T15:07:43.570Z,72.70
2019-03-10T15:10:12.418Z,73.20
2019-03-10T15:12:41.260Z,70.30
2019-03-10T15:15:21.262Z,73.20
2019-03-10T15:17:39.921Z,73.90
2019-03-10T15:20:08.765Z,73.10
2019-03-10T15:22:38.352Z,78.70
2019-03-10T15:25:07.219Z,83.00
2019-03-10T15:27:36.051Z,85.20
2019-03-10T15:30:05.651Z,85.90
2019-03-10T15:32:35.237Z,80.60
2019-03-10T15:35:04.099Z,80.60
2019-03-10T15:37:32.943Z,80.20
2019-03-10T15:40:02.538Z,81.90
2019-03-10T15:42:32.150Z,77.50
2019-03-10T15:45:01.732Z,76.10
2019-03-10T15:47:30.593Z,75.50
2019-03-10T15:49:59.456Z,74.40
2019-03-10T15:52:28.321Z,73.30
2019-03-10T15:54:57.203Z,72.00
2019-03-10T15:57:26.011Z,74.80
2019-03-10T15:59:54.858Z,73.20
2019-03-10T16:02:23.711Z,76.90
2019-03-10T16:04:52.574Z,82.80
2019-03-10T16:07:21.411Z,90.00
2019-03-10T16:09:50.253Z,91.80
2019-03-10T16:12:19.839Z,90.00
2019-03-10T16:14:48.688Z,90.20
2019-03-10T16:17:17.576Z,90.70
2019-03-10T16:19:46.421Z,87.10
2019-03-10T16:22:15.226Z,91.20
2019-03-10T16:24:44.076Z,91.40
2019-03-10T16:27:12.903Z,91.30
2019-03-10T16:29:42.492Z,84.60
2019-03-10T16:32:11.351Z,82.30
2019-03-10T16:34:40.227Z,82.60
2019-03-10T16:37:09.067Z,87.10
2019-03-10T16:39:38.677Z,86.80
2019-03-10T16:42:07.523Z,89.30
2019-03-10T16:44:36.389Z,90.60
2019-03-10T16:47:05.229Z,90.20
2019-03-10T16:49:34.092Z,91.90
2019-03-10T16:52:02.965Z,91.80
2019-03-10T16:54:31.779Z,91.60
2019-03-10T16:57:00.643Z,89.00
2019-03-10T16:59:29.473Z,90.80
2019-03-10T17:01:58.334Z,91.90
2019-03-10T17:04:27.165Z,92.20
2019-03-10T17:06:56.756Z,93.40
2019-03-10T17:09:25.595Z,94.10
2019-03-10T17:11:54.442Z,93.70
2019-03-10T17:14:23.290Z,92.50
2019-03-10T17:16:52.131Z,92.30
2019-03-10T17:19:20.976Z,93.90
2019-03-10T17:21:49.831Z,94.60
2019-03-10T17:24:18.712Z,95.50
2019-03-10T17:26:47.561Z,96.60
2019-03-10T17:29:16.451Z,97.00
2019-03-10T17:31:45.289Z,97.90
2019-03-10T17:34:14.138Z,98.60
2019-03-10T17:36:42.984Z,99.90
2019-03-10T17:39:12.612Z,99.90
2019-03-10T17:41:41.494Z,99.90
2019-03-10T17:44:10.309Z,99.90
2019-03-10T17:46:39.145Z,99.90
2019-03-10T17:49:08.020Z,99.90
2019-03-10T17:51:37.602Z,99.90
2019-03-10T17:54:06.472Z,99.90
2019-03-10T17:56:35.316Z,99.90
2019-03-10T17:59:04.178Z,99.90
2019-03-10T18:01:33.010Z,99.90
2019-03-10T18:04:01.859Z,99.90
2019-03-10T18:06:30.735Z,99.90
2019-03-10T18:08:59.573Z,99.90
2019-03-10T18:11:28.421Z,99.90
2019-03-10T18:13:58.009Z,99.90
2019-03-10T18:16:26.870Z,99.90
2019-03-10T18:18:55.773Z,99.90
2019-03-10T18:21:24.644Z,99.90
2019-03-10T18:23:53.483Z,99.90
2019-03-10T18:26:23.071Z,99.90
2019-03-10T18:28:52.031Z,99.90
2019-03-10T18:31:21.559Z,99.90
2019-03-10T18:33:50.445Z,99.90
2019-03-10T18:36:19.324Z,99.90
2019-03-10T18:38:48.169Z,99.90
2019-03-10T18:41:17.102Z,99.90
2019-03-10T18:43:45.975Z,99.90
2019-03-10T18:46:15.537Z,99.90
2019-03-10T18:48:44.403Z,99.90
2019-03-10T18:51:13.251Z,99.90
2019-03-10T18:53:42.097Z,99.90
2019-03-10T18:56:10.956Z,99.90
2019-03-10T18:58:39.828Z,99.90
2019-03-10T19:01:08.671Z,99.90
2019-03-10T19:03:37.532Z,99.90
2019-03-10T19:06:06.383Z,99.90
2019-03-10T19:08:35.272Z,99.90
2019-03-10T19:11:04.093Z,99.90
2019-03-10T19:13:32.976Z,99.90
2019-03-10T19:16:01.831Z,99.90
2019-03-10T19:18:31.453Z,99.90
2019-03-10T19:21:00.268Z,99.90
2019-03-10T19:23:29.130Z,99.90
2019-03-10T19:25:58.027Z,99.90
2019-03-10T19:28:26.857Z,99.90
2019-03-10T19:30:56.477Z,99.90
2019-03-10T19:33:25.324Z,99.90
2019-03-10T19:35:54.214Z,99.90
2019-03-10T19:38:23.776Z,99.90
2019-03-10T19:40:52.649Z,99.90
2019-03-10T19:43:21.507Z,99.90
2019-03-10T19:45:50.359Z,99.90
2019-03-10T19:48:19.213Z,99.90
2019-03-10T19:50:48.047Z,99.90
2019-03-10T19:53:16.971Z,99.90
2019-03-10T19:55:46.515Z,99.90
2019-03-10T19:58:15.375Z,99.90
2019-03-10T20:00:44.247Z,99.90
2019-03-10T20:03:13.114Z,99.90
2019-03-10T20:05:41.982Z,99.90
2019-03-10T20:08:11.615Z,99.90
2019-03-10T20:10:41.197Z,99.90
2019-03-10T20:13:10.080Z,99.90
2019-03-10T20:15:38.936Z,99.90
2019-03-10T20:18:07.786Z,99.90
2019-03-10T20:20:36.642Z,99.90
2019-03-10T20:23:05.517Z,99.90
2019-03-10T20:25:34.340Z,99.90
2019-03-10T20:28:04.018Z,99.90
2019-03-10T20:30:32.862Z,99.90
2019-03-10T20:33:02.448Z,99.90
2019-03-10T20:35:31.309Z,99.90
2019-03-10T20:38:00.174Z,99.90
2019-03-10T20:40:29.067Z,99.90
2019-03-10T20:42:57.951Z,99.90
2019-03-10T20:45:26.767Z,99.90
2019-03-10T20:47:56.771Z,99.90
2019-03-10T20:50:24.492Z,99.90
2019-03-10T20:52:53.339Z,99.90
2019-03-10T20:55:24.157Z,99.90
2019-03-10T20:57:52.709Z,99.90
2019-03-10T21:00:23.837Z,99.90
2019-03-10T21:02:52.692Z,99.90
2019-03-10T21:05:22.505Z,99.90
2019-03-10T21:07:51.362Z,99.90
2019-03-10T21:10:21.137Z,99.90
2019-03-10T21:12:49.986Z,99.90
2019-03-10T21:15:18.842Z,99.90
2019-03-10T21:17:47.684Z,99.90
2019-03-10T21:20:16.560Z,99.90
2019-03-10T21:22:45.487Z,99.90
2019-03-10T21:27:54.546Z,99.90
2019-03-10T21:30:24.372Z,99.90
2019-03-10T21:32:53.245Z,99.90
2019-03-10T21:35:22.107Z,99.90
2019-03-10T21:37:50.957Z,99.90
2019-03-10T21:40:20.765Z,99.90
2019-03-10T21:42:49.647Z,99.90
2019-03-10T21:45:18.500Z,99.90
2019-03-10T21:47:47.369Z,99.90
2019-03-10T21:50:16.239Z,99.90
2019-03-10T21:52:45.197Z,99.90
2019-03-10T21:55:14.062Z,99.90
2019-03-10T21:57:42.912Z,99.90
2019-03-10T22:00:11.844Z,99.90
2019-03-10T22:02:40.720Z,99.90
2019-03-10T22:05:10.612Z,99.90
2019-03-10T22:07:39.487Z,99.90
2019-03-10T22:10:08.372Z,99.90
2019-03-10T22:12:37.220Z,99.90
2019-03-10T22:15:06.094Z,99.90
2019-03-10T22:17:34.964Z,99.90
2019-03-10T22:20:03.854Z,99.90
2019-03-10T22:22:32.741Z,99.90
2019-03-10T22:25:12.110Z,99.90
2019-03-10T22:27:30.601Z,99.90
2019-03-10T22:30:00.378Z,99.90
2019-03-10T22:32:29.173Z,99.90
2019-03-10T22:34:58.011Z,99.90
2019-03-10T22:37:26.899Z,99.90
2019-03-10T22:39:55.909Z,99.90
2019-03-10T22:42:24.775Z,99.90
2019-03-10T22:44:54.385Z,99.90
2019-03-10T22:47:23.319Z,99.90
2019-03-10T22:49:52.194Z,99.90
2019-03-10T22:52:21.092Z,99.90
2019-03-10T22:54:49.972Z,99.90
2019-03-10T22:57:18.839Z,99.90
2019-03-10T22:59:47.720Z,99.90
2019-03-10T23:02:16.567Z,99.90
2019-03-10T23:04:45.462Z,99.90
2019-03-10T23:07:14.288Z,99.90
2019-03-10T23:09:43.175Z,99.90
2019-03-10T23:12:12.076Z,99.90
2019-03-10T23:14:40.959Z,99.90
2019-03-10T23:17:10.569Z,99.90
2019-03-10T23:19:39.526Z,99.90
2019-03-10T23:22:08.386Z,99.90
2019-03-10T23:24:37.281Z,99.90
2019-03-10T23:27:06.139Z,99.90
2019-03-10T23:29:35.031Z,99.90
2019-03-10T23:32:03.914Z,99.90
2019-03-10T23:34:32.815Z,99.90
2019-03-10T23:37:01.695Z,99.90
2019-03-10T23:39:31.303Z,99.90
2019-03-10T23:42:00.200Z,99.90
2019-03-10T23:44:29.080Z,99.90
2019-03-10T23:46:58.708Z,99.90
2019-03-10T23:49:27.566Z,99.90
2019-03-10T23:51:56.448Z,99.90
2019-03-10T23:54:26.057Z,99.90
2019-03-10T23:56:55.667Z,99.90
2019-03-10T23:59:24.568Z,99.90
